sensor_id;sensor_type;location;lat;lon;timestamp;temperature;humidity
15259;DHT22;34462;51.368;12.364;2024-01-06T00:14:03;4.00;99.90
15259;DHT22;34462;51.368;12.364;2024-01-06T00:16:31;4.10;99.90
15259;DHT22;34462;51.368;12.364;2024-01-06T00:18:59;4.10;99.90
15259;DHT22;34462;51.368;12.364;2024-01-06T00:21:29;4.10;99.90
15259;DHT22;34462;51.368;12.364;2024-01-06T00:23:57;4.10;99.90
15259;DHT22;34462;51.368;12.364;2024-01-06T00:38:52;3.90;99.90
15259;DHT22;34462;51.368;12.364;2024-01-06T00:41:21;3.90;99.90
15259;DHT22;34462;51.368;12.364;2024-01-06T00:53:47;3.80;99.90
15259;DHT22;34462;51.368;12.364;2024-01-06T00:56:16;3.90;99.90
15259;DHT22;34462;51.368;12.364;2024-01-06T00:58:44;3.90;99.90
15259;DHT22;34462;51.368;12.364;2024-01-06T01:01:14;3.90;99.90
15259;DHT22;34462;51.368;12.364;2024-01-06T01:03:42;3.90;99.90
15259;DHT22;34462;51.368;12.364;2024-01-06T01:06:10;3.80;99.90
15259;DHT22;34462;51.368;12.364;2024-01-06T01:08:39;3.80;99.90
15259;DHT22;34462;51.368;12.364;2024-01-06T01:33:32;3.40;99.90
15259;DHT22;34462;51.368;12.364;2024-01-06T01:36:02;3.60;99.90
15259;DHT22;34462;51.368;12.364;2024-01-06T01:38:30;3.50;99.90
15259;DHT22;34462;51.368;12.364;2024-01-06T01:40:59;3.50;99.90
15259;DHT22;34462;51.368;12.364;2024-01-06T01:43:27;3.50;99.90
15259;DHT22;34462;51.368;12.364;2024-01-06T01:45:57;3.50;99.90
15259;DHT22;34462;51.368;12.364;2024-01-06T01:48:26;3.50;99.90
15259;DHT22;34462;51.368;12.364;2024-01-06T01:50:55;3.50;99.90
15259;DHT22;34462;51.368;12.364;2024-01-06T01:53:25;3.40;99.90
15259;DHT22;34462;51.368;12.364;2024-01-06T01:55:54;3.40;99.90
15259;DHT22;34462;51.368;12.364;2024-01-06T01:58:23;3.50;99.90
15259;DHT22;34462;51.368;12.364;2024-01-06T02:00:52;3.40;99.90
15259;DHT22;34462;51.368;12.364;2024-01-06T02:03:22;3.50;99.90
15259;DHT22;34462;51.368;12.364;2024-01-06T02:05:52;3.50;99.90
15259;DHT22;34462;51.368;12.364;2024-01-06T02:08:21;3.50;99.90
15259;DHT22;34462;51.368;12.364;2024-01-06T02:10:51;3.40;99.90
15259;DHT22;34462;51.368;12.364;2024-01-06T02:13:20;3.50;99.90
15259;DHT22;34462;51.368;12.364;2024-01-06T02:15:49;3.50;99.90
15259;DHT22;34462;51.368;12.364;2024-01-06T02:18:19;3.50;99.90
15259;DHT22;34462;51.368;12.364;2024-01-06T02:20:49;3.50;99.90
15259;DHT22;34462;51.368;12.364;2024-01-06T02:23:21;3.50;99.90
15259;DHT22;34462;51.368;12.364;2024-01-06T02:25:49;3.60;99.90
15259;DHT22;34462;51.368;12.364;2024-01-06T02:28:17;3.60;99.90
15259;DHT22;34462;51.368;12.364;2024-01-06T02:30:46;3.60;99.90
15259;DHT22;34462;51.368;12.364;2024-01-06T02:33:14;3.60;99.90
15259;DHT22;34462;51.368;12.364;2024-01-06T02:35:43;3.60;99.90
15259;DHT22;34462;51.368;12.364;2024-01-06T02:38:12;3.50;99.90
15259;DHT22;34462;51.368;12.364;2024-01-06T02:40:41;3.50;99.90
15259;DHT22;34462;51.368;12.364;2024-01-06T02:43:10;3.50;99.90
15259;DHT22;34462;51.368;12.364;2024-01-06T02:45:38;3.50;99.90
15259;DHT22;34462;51.368;12.364;2024-01-06T02:48:07;3.50;99.90
15259;DHT22;34462;51.368;12.364;2024-01-06T02:50:35;3.50;99.90
15259;DHT22;34462;51.368;12.364;2024-01-06T02:53:04;3.40;99.90
15259;DHT22;34462;51.368;12.364;2024-01-06T02:55:32;3.40;99.90
15259;DHT22;34462;51.368;12.364;2024-01-06T02:58:01;3.30;99.90
15259;DHT22;34462;51.368;12.364;2024-01-06T03:00:30;3.30;99.90
15259;DHT22;34462;51.368;12.364;2024-01-06T03:02:58;3.40;99.90
15259;DHT22;34462;51.368;12.364;2024-01-06T03:05:26;3.40;99.90
15259;DHT22;34462;51.368;12.364;2024-01-06T03:07:55;3.30;99.90
15259;DHT22;34462;51.368;12.364;2024-01-06T03:10:23;3.20;99.90
15259;DHT22;34462;51.368;12.364;2024-01-06T03:12:51;3.20;99.90
15259;DHT22;34462;51.368;12.364;2024-01-06T03:15:22;3.20;99.90
15259;DHT22;34462;51.368;12.364;2024-01-06T03:17:51;3.10;99.90
15259;DHT22;34462;51.368;12.364;2024-01-06T03:20:19;3.10;99.90
15259;DHT22;34462;51.368;12.364;2024-01-06T03:22:47;3.10;99.90
15259;DHT22;34462;51.368;12.364;2024-01-06T03:25:16;3.10;99.90
15259;DHT22;34462;51.368;12.364;2024-01-06T03:27:44;3.10;99.90
15259;DHT22;34462;51.368;12.364;2024-01-06T03:30:13;3.10;99.90
15259;DHT22;34462;51.368;12.364;2024-01-06T03:32:43;3.20;99.90
15259;DHT22;34462;51.368;12.364;2024-01-06T03:35:11;3.30;99.90
15259;DHT22;34462;51.368;12.364;2024-01-06T03:37:39;3.30;99.90
15259;DHT22;34462;51.368;12.364;2024-01-06T03:40:08;3.30;99.90
15259;DHT22;34462;51.368;12.364;2024-01-06T03:42:37;3.20;99.90
15259;DHT22;34462;51.368;12.364;2024-01-06T03:45:06;3.10;99.90
15259;DHT22;34462;51.368;12.364;2024-01-06T03:47:35;3.10;99.90
15259;DHT22;34462;51.368;12.364;2024-01-06T03:50:05;3.10;99.90
15259;DHT22;34462;51.368;12.364;2024-01-06T03:52:34;3.00;99.90
15259;DHT22;34462;51.368;12.364;2024-01-06T03:55:03;3.10;99.90
15259;DHT22;34462;51.368;12.364;2024-01-06T03:57:31;3.00;99.90
15259;DHT22;34462;51.368;12.364;2024-01-06T04:00:00;3.00;99.90
15259;DHT22;34462;51.368;12.364;2024-01-06T04:02:28;3.00;99.90
15259;DHT22;34462;51.368;12.364;2024-01-06T04:04:56;3.00;99.90
15259;DHT22;34462;51.368;12.364;2024-01-06T04:07:26;3.00;99.90
15259;DHT22;34462;51.368;12.364;2024-01-06T04:09:54;3.00;99.90
15259;DHT22;34462;51.368;12.364;2024-01-06T04:12:22;3.00;99.90
15259;DHT22;34462;51.368;12.364;2024-01-06T04:14:50;2.90;99.90
15259;DHT22;34462;51.368;12.364;2024-01-06T04:17:19;2.90;99.90
15259;DHT22;34462;51.368;12.364;2024-01-06T04:19:48;2.90;99.90
15259;DHT22;34462;51.368;12.364;2024-01-06T04:22:17;2.90;99.90
15259;DHT22;34462;51.368;12.364;2024-01-06T04:24:46;2.90;99.90
15259;DHT22;34462;51.368;12.364;2024-01-06T04:27:15;2.90;99.90
15259;DHT22;34462;51.368;12.364;2024-01-06T04:29:43;2.90;99.90
15259;DHT22;34462;51.368;12.364;2024-01-06T04:32:11;2.90;99.90
15259;DHT22;34462;51.368;12.364;2024-01-06T04:34:39;2.90;99.90
15259;DHT22;34462;51.368;12.364;2024-01-06T04:37:08;3.00;99.90
15259;DHT22;34462;51.368;12.364;2024-01-06T04:39:36;3.00;99.90
15259;DHT22;34462;51.368;12.364;2024-01-06T04:42:06;3.00;99.90
15259;DHT22;34462;51.368;12.364;2024-01-06T04:44:36;3.00;99.90
15259;DHT22;34462;51.368;12.364;2024-01-06T04:47:04;3.00;99.90
15259;DHT22;34462;51.368;12.364;2024-01-06T04:49:33;2.90;99.90
15259;DHT22;34462;51.368;12.364;2024-01-06T04:52:01;2.90;99.90
15259;DHT22;34462;51.368;12.364;2024-01-06T04:54:29;2.90;99.90
15259;DHT22;34462;51.368;12.364;2024-01-06T04:56:58;2.90;99.90
15259;DHT22;34462;51.368;12.364;2024-01-06T04:59:28;2.90;99.90
15259;DHT22;34462;51.368;12.364;2024-01-06T05:01:57;2.90;99.90
15259;DHT22;34462;51.368;12.364;2024-01-06T05:04:26;2.80;99.90
15259;DHT22;34462;51.368;12.364;2024-01-06T05:06:55;2.80;99.90
15259;DHT22;34462;51.368;12.364;2024-01-06T05:09:24;2.80;99.90
15259;DHT22;34462;51.368;12.364;2024-01-06T05:11:53;2.80;99.90
15259;DHT22;34462;51.368;12.364;2024-01-06T05:14:21;2.80;99.90
15259;DHT22;34462;51.368;12.364;2024-01-06T05:16:51;2.70;99.90
15259;DHT22;34462;51.368;12.364;2024-01-06T05:19:19;2.70;99.90
15259;DHT22;34462;51.368;12.364;2024-01-06T05:21:48;2.70;99.90
15259;DHT22;34462;51.368;12.364;2024-01-06T05:24:17;2.70;99.90
15259;DHT22;34462;51.368;12.364;2024-01-06T05:26:46;2.70;99.90
15259;DHT22;34462;51.368;12.364;2024-01-06T05:29:15;2.70;99.90
15259;DHT22;34462;51.368;12.364;2024-01-06T05:31:43;2.70;99.90
15259;DHT22;34462;51.368;12.364;2024-01-06T05:34:14;2.60;99.90
15259;DHT22;34462;51.368;12.364;2024-01-06T05:36:43;2.60;99.90
15259;DHT22;34462;51.368;12.364;2024-01-06T05:39:11;2.60;99.90
15259;DHT22;34462;51.368;12.364;2024-01-06T05:41:40;2.60;99.90
15259;DHT22;34462;51.368;12.364;2024-01-06T05:44:08;2.70;99.90
15259;DHT22;34462;51.368;12.364;2024-01-06T05:46:36;2.70;99.90
15259;DHT22;34462;51.368;12.364;2024-01-06T05:49:05;2.60;99.90
15259;DHT22;34462;51.368;12.364;2024-01-06T05:51:35;2.60;99.90
15259;DHT22;34462;51.368;12.364;2024-01-06T05:54:03;2.50;99.90
15259;DHT22;34462;51.368;12.364;2024-01-06T05:56:31;2.50;99.90
15259;DHT22;34462;51.368;12.364;2024-01-06T05:59:00;2.50;99.90
15259;DHT22;34462;51.368;12.364;2024-01-06T06:01:29;2.50;99.90
15259;DHT22;34462;51.368;12.364;2024-01-06T06:03:58;2.40;99.90
15259;DHT22;34462;51.368;12.364;2024-01-06T06:06:26;2.40;99.90
15259;DHT22;34462;51.368;12.364;2024-01-06T06:08:56;2.40;99.90
15259;DHT22;34462;51.368;12.364;2024-01-06T06:11:24;2.40;99.90
15259;DHT22;34462;51.368;12.364;2024-01-06T06:13:52;2.40;99.90
15259;DHT22;34462;51.368;12.364;2024-01-06T06:16:21;2.40;99.90
15259;DHT22;34462;51.368;12.364;2024-01-06T06:18:49;2.40;99.90
15259;DHT22;34462;51.368;12.364;2024-01-06T06:21:17;2.40;99.90
15259;DHT22;34462;51.368;12.364;2024-01-06T06:23:46;2.40;99.90
15259;DHT22;34462;51.368;12.364;2024-01-06T06:26:15;2.40;99.90
15259;DHT22;34462;51.368;12.364;2024-01-06T06:28:44;2.40;99.90
15259;DHT22;34462;51.368;12.364;2024-01-06T06:31:12;2.40;99.90
15259;DHT22;34462;51.368;12.364;2024-01-06T06:33:40;2.50;99.90
15259;DHT22;34462;51.368;12.364;2024-01-06T06:36:09;2.50;99.90
15259;DHT22;34462;51.368;12.364;2024-01-06T06:38:38;2.60;99.90
15259;DHT22;34462;51.368;12.364;2024-01-06T06:41:06;2.60;99.90
15259;DHT22;34462;51.368;12.364;2024-01-06T06:43:36;2.60;99.90
15259;DHT22;34462;51.368;12.364;2024-01-06T06:46:04;2.60;99.90
15259;DHT22;34462;51.368;12.364;2024-01-06T06:48:33;2.60;99.90
15259;DHT22;34462;51.368;12.364;2024-01-06T06:51:02;2.60;99.90
15259;DHT22;34462;51.368;12.364;2024-01-06T06:53:31;2.60;99.90
15259;DHT22;34462;51.368;12.364;2024-01-06T06:55:59;2.60;99.90
15259;DHT22;34462;51.368;12.364;2024-01-06T06:58:28;2.60;99.90
15259;DHT22;34462;51.368;12.364;2024-01-06T07:00:57;2.70;99.90
15259;DHT22;34462;51.368;12.364;2024-01-06T07:03:26;2.80;99.90
15259;DHT22;34462;51.368;12.364;2024-01-06T07:05:54;2.90;99.90
15259;DHT22;34462;51.368;12.364;2024-01-06T07:08:22;3.00;99.90
15259;DHT22;34462;51.368;12.364;2024-01-06T07:10:51;3.00;99.90
15259;DHT22;34462;51.368;12.364;2024-01-06T07:13:19;3.10;99.90
15259;DHT22;34462;51.368;12.364;2024-01-06T07:15:47;3.10;99.90
15259;DHT22;34462;51.368;12.364;2024-01-06T07:18:19;3.20;99.90
15259;DHT22;34462;51.368;12.364;2024-01-06T07:20:50;3.20;99.90
15259;DHT22;34462;51.368;12.364;2024-01-06T07:23:18;3.20;99.90
15259;DHT22;34462;51.368;12.364;2024-01-06T07:25:46;3.30;99.90
15259;DHT22;34462;51.368;12.364;2024-01-06T07:28:16;3.30;99.90
15259;DHT22;34462;51.368;12.364;2024-01-06T07:30:44;3.30;99.90
15259;DHT22;34462;51.368;12.364;2024-01-06T07:33:12;3.40;99.90
15259;DHT22;34462;51.368;12.364;2024-01-06T07:35:42;3.40;99.90
15259;DHT22;34462;51.368;12.364;2024-01-06T07:38:10;3.50;99.90
15259;DHT22;34462;51.368;12.364;2024-01-06T07:40:39;3.50;99.90
15259;DHT22;34462;51.368;12.364;2024-01-06T07:43:08;3.50;99.90
15259;DHT22;34462;51.368;12.364;2024-01-06T07:45:36;3.60;99.90
15259;DHT22;34462;51.368;12.364;2024-01-06T07:48:06;3.60;99.90
15259;DHT22;34462;51.368;12.364;2024-01-06T07:50:34;3.60;99.90
15259;DHT22;34462;51.368;12.364;2024-01-06T07:53:04;3.70;99.90
15259;DHT22;34462;51.368;12.364;2024-01-06T07:55:32;3.70;99.90
15259;DHT22;34462;51.368;12.364;2024-01-06T07:58:01;3.80;99.90
15259;DHT22;34462;51.368;12.364;2024-01-06T08:00:30;3.80;99.90
15259;DHT22;34462;51.368;12.364;2024-01-06T08:02:58;3.80;99.90
15259;DHT22;34462;51.368;12.364;2024-01-06T08:05:26;3.90;99.90
15259;DHT22;34462;51.368;12.364;2024-01-06T08:07:55;3.90;99.90
15259;DHT22;34462;51.368;12.364;2024-01-06T08:10:24;3.90;99.90
15259;DHT22;34462;51.368;12.364;2024-01-06T08:12:52;4.00;99.90
15259;DHT22;34462;51.368;12.364;2024-01-06T08:15:21;4.00;99.90
15259;DHT22;34462;51.368;12.364;2024-01-06T08:17:50;4.10;99.90
15259;DHT22;34462;51.368;12.364;2024-01-06T08:20:18;4.10;99.90
15259;DHT22;34462;51.368;12.364;2024-01-06T08:22:47;4.10;99.90
15259;DHT22;34462;51.368;12.364;2024-01-06T08:25:15;4.20;99.90
15259;DHT22;34462;51.368;12.364;2024-01-06T08:27:46;4.20;99.90
15259;DHT22;34462;51.368;12.364;2024-01-06T08:30:14;4.30;99.90
15259;DHT22;34462;51.368;12.364;2024-01-06T08:32:43;4.30;99.90
15259;DHT22;34462;51.368;12.364;2024-01-06T08:35:11;4.40;99.90
15259;DHT22;34462;51.368;12.364;2024-01-06T08:37:43;4.40;99.90
15259;DHT22;34462;51.368;12.364;2024-01-06T08:40:12;4.50;99.90
15259;DHT22;34462;51.368;12.364;2024-01-06T08:42:40;4.50;99.90
15259;DHT22;34462;51.368;12.364;2024-01-06T08:45:10;4.50;99.90
15259;DHT22;34462;51.368;12.364;2024-01-06T08:47:38;4.50;99.90
15259;DHT22;34462;51.368;12.364;2024-01-06T08:50:07;4.60;99.90
15259;DHT22;34462;51.368;12.364;2024-01-06T08:52:36;4.70;99.90
15259;DHT22;34462;51.368;12.364;2024-01-06T08:55:05;4.70;99.90
15259;DHT22;34462;51.368;12.364;2024-01-06T08:57:34;4.70;99.90
15259;DHT22;34462;51.368;12.364;2024-01-06T09:00:03;4.70;99.90
15259;DHT22;34462;51.368;12.364;2024-01-06T09:02:33;4.70;99.90
15259;DHT22;34462;51.368;12.364;2024-01-06T09:05:01;4.80;99.90
15259;DHT22;34462;51.368;12.364;2024-01-06T09:07:31;4.70;99.90
15259;DHT22;34462;51.368;12.364;2024-01-06T09:10:00;4.80;99.90
15259;DHT22;34462;51.368;12.364;2024-01-06T09:12:28;4.80;99.90
15259;DHT22;34462;51.368;12.364;2024-01-06T09:14:57;4.80;99.90
15259;DHT22;34462;51.368;12.364;2024-01-06T09:17:25;4.80;99.90
15259;DHT22;34462;51.368;12.364;2024-01-06T09:19:55;4.90;99.90
15259;DHT22;34462;51.368;12.364;2024-01-06T09:22:23;4.90;99.90
15259;DHT22;34462;51.368;12.364;2024-01-06T09:24:52;4.90;99.90
15259;DHT22;34462;51.368;12.364;2024-01-06T09:27:20;5.00;99.90
15259;DHT22;34462;51.368;12.364;2024-01-06T09:29:49;5.00;99.90
15259;DHT22;34462;51.368;12.364;2024-01-06T09:32:18;5.10;99.90
15259;DHT22;34462;51.368;12.364;2024-01-06T09:34:46;5.10;99.90
15259;DHT22;34462;51.368;12.364;2024-01-06T09:37:16;5.10;99.90
15259;DHT22;34462;51.368;12.364;2024-01-06T09:39:44;5.10;99.90
15259;DHT22;34462;51.368;12.364;2024-01-06T09:42:12;5.10;99.90
15259;DHT22;34462;51.368;12.364;2024-01-06T09:44:41;5.10;99.90
15259;DHT22;34462;51.368;12.364;2024-01-06T09:47:12;5.10;99.90
15259;DHT22;34462;51.368;12.364;2024-01-06T09:49:42;5.10;99.90
15259;DHT22;34462;51.368;12.364;2024-01-06T09:52:21;5.00;99.90
15259;DHT22;34462;51.368;12.364;2024-01-06T09:54:52;4.90;99.90
15259;DHT22;34462;51.368;12.364;2024-01-06T09:57:23;4.80;99.90
15259;DHT22;34462;51.368;12.364;2024-01-06T09:59:52;4.80;99.90
15259;DHT22;34462;51.368;12.364;2024-01-06T10:02:21;4.80;99.90
15259;DHT22;34462;51.368;12.364;2024-01-06T10:04:50;4.70;99.90
15259;DHT22;34462;51.368;12.364;2024-01-06T10:07:20;4.60;99.90
15259;DHT22;34462;51.368;12.364;2024-01-06T10:09:48;4.60;99.90
15259;DHT22;34462;51.368;12.364;2024-01-06T10:12:16;4.60;99.90
15259;DHT22;34462;51.368;12.364;2024-01-06T10:14:44;4.60;99.90
15259;DHT22;34462;51.368;12.364;2024-01-06T10:17:13;4.60;99.90
15259;DHT22;34462;51.368;12.364;2024-01-06T10:19:44;4.60;99.90
15259;DHT22;34462;51.368;12.364;2024-01-06T10:22:13;4.70;99.90
15259;DHT22;34462;51.368;12.364;2024-01-06T10:24:43;4.70;99.90
15259;DHT22;34462;51.368;12.364;2024-01-06T10:27:11;4.70;99.90
15259;DHT22;34462;51.368;12.364;2024-01-06T10:29:40;4.80;99.90
15259;DHT22;34462;51.368;12.364;2024-01-06T10:32:09;4.80;99.90
15259;DHT22;34462;51.368;12.364;2024-01-06T10:34:37;4.90;99.90
15259;DHT22;34462;51.368;12.364;2024-01-06T10:37:06;5.00;99.90
15259;DHT22;34462;51.368;12.364;2024-01-06T10:39:34;5.10;99.90
15259;DHT22;34462;51.368;12.364;2024-01-06T10:42:06;5.20;99.90
15259;DHT22;34462;51.368;12.364;2024-01-06T10:44:36;5.20;99.90
15259;DHT22;34462;51.368;12.364;2024-01-06T10:47:12;5.30;99.90
15259;DHT22;34462;51.368;12.364;2024-01-06T10:49:41;5.40;99.90
15259;DHT22;34462;51.368;12.364;2024-01-06T10:52:11;5.40;99.90
15259;DHT22;34462;51.368;12.364;2024-01-06T10:54:41;5.50;99.90
15259;DHT22;34462;51.368;12.364;2024-01-06T10:57:11;5.60;99.90
15259;DHT22;34462;51.368;12.364;2024-01-06T10:59:41;5.70;99.90
15259;DHT22;34462;51.368;12.364;2024-01-06T11:02:11;5.80;99.90
15259;DHT22;34462;51.368;12.364;2024-01-06T11:04:43;5.70;99.90
15259;DHT22;34462;51.368;12.364;2024-01-06T11:07:13;5.70;99.90
15259;DHT22;34462;51.368;12.364;2024-01-06T11:09:48;5.70;99.90
15259;DHT22;34462;51.368;12.364;2024-01-06T11:12:21;5.80;99.90
15259;DHT22;34462;51.368;12.364;2024-01-06T11:14:52;5.80;99.90
15259;DHT22;34462;51.368;12.364;2024-01-06T11:17:49;5.70;99.90
15259;DHT22;34462;51.368;12.364;2024-01-06T11:20:20;5.70;99.90
15259;DHT22;34462;51.368;12.364;2024-01-06T11:22:49;5.70;99.90
15259;DHT22;34462;51.368;12.364;2024-01-06T11:25:20;5.90;99.90
15259;DHT22;34462;51.368;12.364;2024-01-06T11:27:50;5.90;99.90
15259;DHT22;34462;51.368;12.364;2024-01-06T11:30:25;6.00;99.90
15259;DHT22;34462;51.368;12.364;2024-01-06T11:32:56;6.00;99.90
15259;DHT22;34462;51.368;12.364;2024-01-06T11:35:27;6.10;99.90
15259;DHT22;34462;51.368;12.364;2024-01-06T11:37:56;6.20;99.90
15259;DHT22;34462;51.368;12.364;2024-01-06T11:40:34;6.10;99.90
15259;DHT22;34462;51.368;12.364;2024-01-06T11:43:07;6.00;99.90
15259;DHT22;34462;51.368;12.364;2024-01-06T11:45:37;6.00;99.90
15259;DHT22;34462;51.368;12.364;2024-01-06T11:48:07;6.00;99.90
15259;DHT22;34462;51.368;12.364;2024-01-06T11:50:40;6.00;99.90
15259;DHT22;34462;51.368;12.364;2024-01-06T11:53:09;6.00;99.90
15259;DHT22;34462;51.368;12.364;2024-01-06T11:55:38;5.90;99.90
15259;DHT22;34462;51.368;12.364;2024-01-06T11:58:08;5.80;99.90
15259;DHT22;34462;51.368;12.364;2024-01-06T12:00:37;5.80;99.90
15259;DHT22;34462;51.368;12.364;2024-01-06T12:03:07;5.70;99.90
15259;DHT22;34462;51.368;12.364;2024-01-06T12:05:36;5.60;99.90
15259;DHT22;34462;51.368;12.364;2024-01-06T12:08:05;5.60;99.90
15259;DHT22;34462;51.368;12.364;2024-01-06T12:10:35;5.70;99.90
15259;DHT22;34462;51.368;12.364;2024-01-06T12:13:04;5.70;99.90
15259;DHT22;34462;51.368;12.364;2024-01-06T12:15:37;5.90;99.90
15259;DHT22;34462;51.368;12.364;2024-01-06T12:18:07;5.80;99.90
15259;DHT22;34462;51.368;12.364;2024-01-06T12:20:36;5.90;99.90
15259;DHT22;34462;51.368;12.364;2024-01-06T12:23:04;5.70;99.90
15259;DHT22;34462;51.368;12.364;2024-01-06T12:25:34;5.50;99.90
15259;DHT22;34462;51.368;12.364;2024-01-06T12:28:06;5.50;99.90
15259;DHT22;34462;51.368;12.364;2024-01-06T12:30:38;5.30;99.90
15259;DHT22;34462;51.368;12.364;2024-01-06T12:33:07;5.20;99.90
15259;DHT22;34462;51.368;12.364;2024-01-06T12:35:38;5.20;99.90
15259;DHT22;34462;51.368;12.364;2024-01-06T12:38:08;5.10;99.90
15259;DHT22;34462;51.368;12.364;2024-01-06T12:40:37;5.10;99.90
15259;DHT22;34462;51.368;12.364;2024-01-06T12:43:06;5.10;99.90
15259;DHT22;34462;51.368;12.364;2024-01-06T12:45:34;5.10;99.90
15259;DHT22;34462;51.368;12.364;2024-01-06T12:48:05;5.10;99.90
15259;DHT22;34462;51.368;12.364;2024-01-06T12:50:34;5.10;99.90
15259;DHT22;34462;51.368;12.364;2024-01-06T12:53:02;5.20;99.90
15259;DHT22;34462;51.368;12.364;2024-01-06T12:55:31;5.20;99.90
15259;DHT22;34462;51.368;12.364;2024-01-06T12:57:59;5.00;99.90
15259;DHT22;34462;51.368;12.364;2024-01-06T13:00:30;4.90;99.90
15259;DHT22;34462;51.368;12.364;2024-01-06T13:03:04;4.70;99.90
15259;DHT22;34462;51.368;12.364;2024-01-06T13:05:33;4.70;99.90
15259;DHT22;34462;51.368;12.364;2024-01-06T13:08:01;4.70;99.90
15259;DHT22;34462;51.368;12.364;2024-01-06T13:10:30;4.60;99.90
15259;DHT22;34462;51.368;12.364;2024-01-06T13:12:58;4.60;99.90
15259;DHT22;34462;51.368;12.364;2024-01-06T13:15:27;4.70;99.90
15259;DHT22;34462;51.368;12.364;2024-01-06T13:17:55;4.60;99.90
15259;DHT22;34462;51.368;12.364;2024-01-06T13:20:25;4.60;99.90
15259;DHT22;34462;51.368;12.364;2024-01-06T13:22:53;4.30;99.90
15259;DHT22;34462;51.368;12.364;2024-01-06T13:25:22;4.30;99.90
15259;DHT22;34462;51.368;12.364;2024-01-06T13:27:50;4.30;99.90
15259;DHT22;34462;51.368;12.364;2024-01-06T13:30:19;4.10;99.90
15259;DHT22;34462;51.368;12.364;2024-01-06T13:32:47;4.20;99.90
15259;DHT22;34462;51.368;12.364;2024-01-06T13:35:17;4.10;99.90
15259;DHT22;34462;51.368;12.364;2024-01-06T13:37:47;4.00;99.90
15259;DHT22;34462;51.368;12.364;2024-01-06T13:42:48;3.90;99.90
15259;DHT22;34462;51.368;12.364;2024-01-06T13:45:17;3.90;99.90
15259;DHT22;34462;51.368;12.364;2024-01-06T13:47:46;4.00;99.90
15259;DHT22;34462;51.368;12.364;2024-01-06T13:50:16;3.90;99.90
15259;DHT22;34462;51.368;12.364;2024-01-06T13:52:47;3.90;99.90
15259;DHT22;34462;51.368;12.364;2024-01-06T13:55:16;4.00;99.90
15259;DHT22;34462;51.368;12.364;2024-01-06T13:57:44;4.10;99.90
15259;DHT22;34462;51.368;12.364;2024-01-06T14:00:13;4.10;99.90
15259;DHT22;34462;51.368;12.364;2024-01-06T14:02:47;4.10;99.90
15259;DHT22;34462;51.368;12.364;2024-01-06T14:05:15;4.10;99.90
15259;DHT22;34462;51.368;12.364;2024-01-06T14:07:47;4.20;99.90
15259;DHT22;34462;51.368;12.364;2024-01-06T14:10:17;4.20;99.90
15259;DHT22;34462;51.368;12.364;2024-01-06T14:12:46;4.20;99.90
15259;DHT22;34462;51.368;12.364;2024-01-06T14:15:15;4.30;99.90
15259;DHT22;34462;51.368;12.364;2024-01-06T14:17:43;4.30;99.90
15259;DHT22;34462;51.368;12.364;2024-01-06T14:20:16;4.20;99.90
15259;DHT22;34462;51.368;12.364;2024-01-06T14:22:47;4.20;99.90
15259;DHT22;34462;51.368;12.364;2024-01-06T14:25:16;4.10;99.90
15259;DHT22;34462;51.368;12.364;2024-01-06T14:27:45;4.10;99.90
15259;DHT22;34462;51.368;12.364;2024-01-06T14:30:14;4.20;99.90
15259;DHT22;34462;51.368;12.364;2024-01-06T14:32:43;4.10;99.90
15259;DHT22;34462;51.368;12.364;2024-01-06T14:35:11;4.00;99.90
15259;DHT22;34462;51.368;12.364;2024-01-06T14:37:41;4.00;99.90
15259;DHT22;34462;51.368;12.364;2024-01-06T14:40:12;4.00;99.90
15259;DHT22;34462;51.368;12.364;2024-01-06T14:42:41;4.00;99.90
15259;DHT22;34462;51.368;12.364;2024-01-06T14:45:09;4.00;99.90
15259;DHT22;34462;51.368;12.364;2024-01-06T14:47:39;3.90;99.90
15259;DHT22;34462;51.368;12.364;2024-01-06T14:50:08;3.80;99.90
15259;DHT22;34462;51.368;12.364;2024-01-06T14:52:37;3.90;99.90
15259;DHT22;34462;51.368;12.364;2024-01-06T14:55:06;3.90;99.90
15259;DHT22;34462;51.368;12.364;2024-01-06T14:57:36;3.80;99.90
15259;DHT22;34462;51.368;12.364;2024-01-06T15:00:05;3.80;99.90
15259;DHT22;34462;51.368;12.364;2024-01-06T15:02:37;3.80;99.90
15259;DHT22;34462;51.368;12.364;2024-01-06T15:05:07;3.70;99.90
15259;DHT22;34462;51.368;12.364;2024-01-06T15:07:36;3.70;99.90
15259;DHT22;34462;51.368;12.364;2024-01-06T15:10:05;3.80;99.90
15259;DHT22;34462;51.368;12.364;2024-01-06T15:12:38;3.70;99.90
15259;DHT22;34462;51.368;12.364;2024-01-06T15:15:07;3.70;99.90
15259;DHT22;34462;51.368;12.364;2024-01-06T15:17:36;3.60;99.90
15259;DHT22;34462;51.368;12.364;2024-01-06T15:20:05;3.60;99.90
15259;DHT22;34462;51.368;12.364;2024-01-06T15:22:36;3.60;99.90
15259;DHT22;34462;51.368;12.364;2024-01-06T15:25:07;3.50;99.90
15259;DHT22;34462;51.368;12.364;2024-01-06T15:27:38;3.50;99.90
15259;DHT22;34462;51.368;12.364;2024-01-06T15:30:07;3.40;99.90
15259;DHT22;34462;51.368;12.364;2024-01-06T15:32:37;3.40;99.90
15259;DHT22;34462;51.368;12.364;2024-01-06T15:35:06;3.30;99.90
15259;DHT22;34462;51.368;12.364;2024-01-06T15:37:36;3.30;99.90
15259;DHT22;34462;51.368;12.364;2024-01-06T15:40:06;3.40;99.90
15259;DHT22;34462;51.368;12.364;2024-01-06T15:42:37;3.40;99.90
15259;DHT22;34462;51.368;12.364;2024-01-06T15:45:06;3.30;99.90
15259;DHT22;34462;51.368;12.364;2024-01-06T15:47:35;3.40;99.90
15259;DHT22;34462;51.368;12.364;2024-01-06T15:50:04;3.40;99.90
15259;DHT22;34462;51.368;12.364;2024-01-06T15:52:35;3.40;99.90
15259;DHT22;34462;51.368;12.364;2024-01-06T15:55:04;3.50;99.90
15259;DHT22;34462;51.368;12.364;2024-01-06T15:57:33;3.40;99.90
15259;DHT22;34462;51.368;12.364;2024-01-06T16:00:04;3.30;99.90
15259;DHT22;34462;51.368;12.364;2024-01-06T16:02:33;3.40;99.90
15259;DHT22;34462;51.368;12.364;2024-01-06T16:05:02;3.30;99.90
15259;DHT22;34462;51.368;12.364;2024-01-06T16:09:59;3.20;99.90
15259;DHT22;34462;51.368;12.364;2024-01-06T16:12:28;3.20;99.90
15259;DHT22;34462;51.368;12.364;2024-01-06T16:17:28;3.20;99.90
15259;DHT22;34462;51.368;12.364;2024-01-06T16:19:56;3.20;99.90
15259;DHT22;34462;51.368;12.364;2024-01-06T16:22:26;3.20;99.90
15259;DHT22;34462;51.368;12.364;2024-01-06T16:24:55;3.10;99.90
15259;DHT22;34462;51.368;12.364;2024-01-06T16:27:24;3.20;99.90
15259;DHT22;34462;51.368;12.364;2024-01-06T16:29:52;3.30;99.90
15259;DHT22;34462;51.368;12.364;2024-01-06T16:34:51;3.10;99.90
15259;DHT22;34462;51.368;12.364;2024-01-06T16:37:19;3.10;99.90
15259;DHT22;34462;51.368;12.364;2024-01-06T16:39:47;3.10;99.90
15259;DHT22;34462;51.368;12.364;2024-01-06T16:42:16;3.00;99.90
15259;DHT22;34462;51.368;12.364;2024-01-06T16:44:45;3.00;99.90
15259;DHT22;34462;51.368;12.364;2024-01-06T16:47:13;3.10;99.90
15259;DHT22;34462;51.368;12.364;2024-01-06T16:49:42;3.00;99.90